sensor_id;sensor_type;location;lat;lon;timestamp;P1;durP1;ratioP1;P2;durP2;ratioP2
61840;SDS011;47773;53.174;6.614;2024-02-26T00:02:17;22.45;;;11.27;;
61840;SDS011;47773;53.174;6.614;2024-02-26T00:04:43;26.30;;;11.73;;
61840;SDS011;47773;53.174;6.614;2024-02-26T00:07:09;21.52;;;11.27;;
61840;SDS011;47773;53.174;6.614;2024-02-26T00:09:34;22.60;;;11.73;;
61840;SDS011;47773;53.174;6.614;2024-02-26T00:12:02;23.42;;;11.85;;
61840;SDS011;47773;53.174;6.614;2024-02-26T00:14:29;26.70;;;12.40;;
61840;SDS011;47773;53.174;6.614;2024-02-26T00:16:55;24.35;;;11.98;;
61840;SDS011;47773;53.174;6.614;2024-02-26T00:19:21;27.08;;;12.45;;
61840;SDS011;47773;53.174;6.614;2024-02-26T00:21:47;25.95;;;12.68;;
61840;SDS011;47773;53.174;6.614;2024-02-26T00:24:12;25.25;;;12.82;;
61840;SDS011;47773;53.174;6.614;2024-02-26T00:26:38;23.02;;;11.82;;
61840;SDS011;47773;53.174;6.614;2024-02-26T00:29:04;28.27;;;13.50;;
61840;SDS011;47773;53.174;6.614;2024-02-26T00:31:30;25.63;;;12.15;;
61840;SDS011;47773;53.174;6.614;2024-02-26T00:33:56;29.05;;;13.98;;
61840;SDS011;47773;53.174;6.614;2024-02-26T00:36:21;28.00;;;13.27;;
61840;SDS011;47773;53.174;6.614;2024-02-26T00:38:47;25.77;;;13.20;;
61840;SDS011;47773;53.174;6.614;2024-02-26T00:41:16;26.40;;;13.70;;
61840;SDS011;47773;53.174;6.614;2024-02-26T00:43:42;26.90;;;13.27;;
61840;SDS011;47773;53.174;6.614;2024-02-26T00:46:08;30.35;;;14.43;;
61840;SDS011;47773;53.174;6.614;2024-02-26T00:48:34;29.63;;;14.70;;
61840;SDS011;47773;53.174;6.614;2024-02-26T00:51:00;30.75;;;14.85;;
61840;SDS011;47773;53.174;6.614;2024-02-26T00:53:25;32.03;;;15.07;;
61840;SDS011;47773;53.174;6.614;2024-02-26T00:55:51;27.40;;;14.32;;
61840;SDS011;47773;53.174;6.614;2024-02-26T00:58:17;28.35;;;14.48;;
61840;SDS011;47773;53.174;6.614;2024-02-26T01:00:44;31.90;;;15.02;;
61840;SDS011;47773;53.174;6.614;2024-02-26T01:03:09;29.60;;;14.73;;
61840;SDS011;47773;53.174;6.614;2024-02-26T01:05:35;29.85;;;15.27;;
61840;SDS011;47773;53.174;6.614;2024-02-26T01:08:02;30.13;;;15.40;;
61840;SDS011;47773;53.174;6.614;2024-02-26T01:10:28;28.67;;;14.15;;
61840;SDS011;47773;53.174;6.614;2024-02-26T01:12:54;30.58;;;14.07;;
61840;SDS011;47773;53.174;6.614;2024-02-26T01:15:19;28.65;;;14.68;;
61840;SDS011;47773;53.174;6.614;2024-02-26T01:17:48;28.08;;;14.35;;
61840;SDS011;47773;53.174;6.614;2024-02-26T01:20:15;28.55;;;13.85;;
61840;SDS011;47773;53.174;6.614;2024-02-26T01:22:40;28.25;;;13.77;;
61840;SDS011;47773;53.174;6.614;2024-02-26T01:25:07;24.80;;;13.77;;
61840;SDS011;47773;53.174;6.614;2024-02-26T01:27:33;26.77;;;14.20;;
61840;SDS011;47773;53.174;6.614;2024-02-26T01:29:58;26.55;;;13.75;;
61840;SDS011;47773;53.174;6.614;2024-02-26T01:32:24;26.85;;;13.65;;
61840;SDS011;47773;53.174;6.614;2024-02-26T01:34:49;25.85;;;14.10;;
61840;SDS011;47773;53.174;6.614;2024-02-26T01:37:15;22.02;;;13.38;;
61840;SDS011;47773;53.174;6.614;2024-02-26T01:39:41;24.88;;;14.10;;
61840;SDS011;47773;53.174;6.614;2024-02-26T01:42:07;27.30;;;13.85;;
61840;SDS011;47773;53.174;6.614;2024-02-26T01:44:32;21.42;;;12.23;;
61840;SDS011;47773;53.174;6.614;2024-02-26T01:46:58;24.92;;;13.73;;
61840;SDS011;47773;53.174;6.614;2024-02-26T01:49:26;23.77;;;13.25;;
61840;SDS011;47773;53.174;6.614;2024-02-26T01:51:53;23.23;;;12.23;;
61840;SDS011;47773;53.174;6.614;2024-02-26T01:54:20;23.80;;;12.40;;
61840;SDS011;47773;53.174;6.614;2024-02-26T01:56:46;23.30;;;12.30;;
61840;SDS011;47773;53.174;6.614;2024-02-26T01:59:12;20.88;;;11.88;;
61840;SDS011;47773;53.174;6.614;2024-02-26T02:01:38;19.83;;;10.80;;
61840;SDS011;47773;53.174;6.614;2024-02-26T02:04:07;18.30;;;10.05;;
61840;SDS011;47773;53.174;6.614;2024-02-26T02:06:32;16.67;;;9.07;;
61840;SDS011;47773;53.174;6.614;2024-02-26T02:08:58;18.98;;;9.77;;
61840;SDS011;47773;53.174;6.614;2024-02-26T02:11:25;19.90;;;9.77;;
61840;SDS011;47773;53.174;6.614;2024-02-26T02:13:51;14.98;;;9.35;;
61840;SDS011;47773;53.174;6.614;2024-02-26T02:16:17;18.10;;;9.80;;
61840;SDS011;47773;53.174;6.614;2024-02-26T02:18:43;16.55;;;9.38;;
61840;SDS011;47773;53.174;6.614;2024-02-26T02:21:08;15.60;;;9.60;;
61840;SDS011;47773;53.174;6.614;2024-02-26T02:23:34;17.85;;;9.98;;
61840;SDS011;47773;53.174;6.614;2024-02-26T02:25:59;17.27;;;9.52;;
61840;SDS011;47773;53.174;6.614;2024-02-26T02:28:25;16.00;;;9.75;;
61840;SDS011;47773;53.174;6.614;2024-02-26T02:30:52;16.58;;;9.75;;
61840;SDS011;47773;53.174;6.614;2024-02-26T02:33:18;15.73;;;9.23;;
61840;SDS011;47773;53.174;6.614;2024-02-26T02:35:44;14.40;;;8.82;;
61840;SDS011;47773;53.174;6.614;2024-02-26T02:38:10;16.38;;;8.35;;
61840;SDS011;47773;53.174;6.614;2024-02-26T02:40:36;14.82;;;8.73;;
61840;SDS011;47773;53.174;6.614;2024-02-26T02:43:02;12.90;;;8.48;;
61840;SDS011;47773;53.174;6.614;2024-02-26T02:45:28;14.90;;;9.20;;
61840;SDS011;47773;53.174;6.614;2024-02-26T02:47:53;15.57;;;8.38;;
61840;SDS011;47773;53.174;6.614;2024-02-26T02:50:19;15.02;;;8.68;;
61840;SDS011;47773;53.174;6.614;2024-02-26T02:52:45;15.98;;;8.50;;
61840;SDS011;47773;53.174;6.614;2024-02-26T02:55:11;12.95;;;8.05;;
61840;SDS011;47773;53.174;6.614;2024-02-26T02:57:37;13.75;;;7.63;;
61840;SDS011;47773;53.174;6.614;2024-02-26T03:00:07;12.15;;;7.15;;
61840;SDS011;47773;53.174;6.614;2024-02-26T03:02:33;12.35;;;7.35;;
61840;SDS011;47773;53.174;6.614;2024-02-26T03:05:01;10.38;;;6.80;;
61840;SDS011;47773;53.174;6.614;2024-02-26T03:07:30;11.68;;;6.35;;
61840;SDS011;47773;53.174;6.614;2024-02-26T03:09:56;10.32;;;6.85;;
61840;SDS011;47773;53.174;6.614;2024-02-26T03:12:21;11.77;;;6.90;;
61840;SDS011;47773;53.174;6.614;2024-02-26T03:14:47;11.48;;;6.55;;
61840;SDS011;47773;53.174;6.614;2024-02-26T03:17:12;10.63;;;6.80;;
61840;SDS011;47773;53.174;6.614;2024-02-26T03:19:38;12.32;;;6.10;;
61840;SDS011;47773;53.174;6.614;2024-02-26T03:22:04;10.85;;;6.28;;
61840;SDS011;47773;53.174;6.614;2024-02-26T03:24:29;11.15;;;6.60;;
61840;SDS011;47773;53.174;6.614;2024-02-26T03:26:55;9.52;;;5.93;;
61840;SDS011;47773;53.174;6.614;2024-02-26T03:29:21;12.38;;;6.35;;
61840;SDS011;47773;53.174;6.614;2024-02-26T03:31:47;14.35;;;6.13;;
61840;SDS011;47773;53.174;6.614;2024-02-26T03:34:12;9.98;;;6.05;;
61840;SDS011;47773;53.174;6.614;2024-02-26T03:36:39;10.27;;;6.00;;
61840;SDS011;47773;53.174;6.614;2024-02-26T03:39:06;9.85;;;5.43;;
61840;SDS011;47773;53.174;6.614;2024-02-26T03:41:35;12.98;;;5.90;;
61840;SDS011;47773;53.174;6.614;2024-02-26T03:44:01;9.45;;;5.75;;
61840;SDS011;47773;53.174;6.614;2024-02-26T03:46:27;9.52;;;5.50;;
61840;SDS011;47773;53.174;6.614;2024-02-26T03:48:53;9.48;;;5.40;;
61840;SDS011;47773;53.174;6.614;2024-02-26T03:51:18;9.27;;;5.20;;
61840;SDS011;47773;53.174;6.614;2024-02-26T03:53:44;10.07;;;5.15;;
61840;SDS011;47773;53.174;6.614;2024-02-26T03:56:11;8.25;;;5.25;;
61840;SDS011;47773;53.174;6.614;2024-02-26T03:58:36;9.63;;;4.90;;
61840;SDS011;47773;53.174;6.614;2024-02-26T04:01:02;7.53;;;4.80;;
61840;SDS011;47773;53.174;6.614;2024-02-26T04:03:28;10.93;;;5.03;;
61840;SDS011;47773;53.174;6.614;2024-02-26T04:05:53;8.45;;;5.00;;
61840;SDS011;47773;53.174;6.614;2024-02-26T04:08:19;14.13;;;5.00;;
61840;SDS011;47773;53.174;6.614;2024-02-26T04:10:45;16.88;;;5.13;;
61840;SDS011;47773;53.174;6.614;2024-02-26T04:13:10;11.07;;;4.93;;
61840;SDS011;47773;53.174;6.614;2024-02-26T04:15:36;8.43;;;5.00;;
61840;SDS011;47773;53.174;6.614;2024-02-26T04:18:02;7.32;;;4.80;;
61840;SDS011;47773;53.174;6.614;2024-02-26T04:20:27;8.00;;;4.50;;
61840;SDS011;47773;53.174;6.614;2024-02-26T04:22:53;8.30;;;4.45;;
61840;SDS011;47773;53.174;6.614;2024-02-26T04:25:19;8.85;;;5.32;;
61840;SDS011;47773;53.174;6.614;2024-02-26T04:27:44;9.88;;;4.80;;
61840;SDS011;47773;53.174;6.614;2024-02-26T04:30:10;16.67;;;5.03;;
61840;SDS011;47773;53.174;6.614;2024-02-26T04:32:36;9.07;;;4.78;;
61840;SDS011;47773;53.174;6.614;2024-02-26T04:35:02;8.23;;;4.50;;
61840;SDS011;47773;53.174;6.614;2024-02-26T04:37:28;11.55;;;4.47;;
61840;SDS011;47773;53.174;6.614;2024-02-26T04:39:59;10.38;;;4.80;;
61840;SDS011;47773;53.174;6.614;2024-02-26T04:42:26;6.90;;;4.13;;
61840;SDS011;47773;53.174;6.614;2024-02-26T04:44:52;9.30;;;4.40;;
61840;SDS011;47773;53.174;6.614;2024-02-26T04:47:19;8.27;;;4.20;;
61840;SDS011;47773;53.174;6.614;2024-02-26T04:49:47;7.78;;;4.20;;
61840;SDS011;47773;53.174;6.614;2024-02-26T04:52:14;9.90;;;4.32;;
61840;SDS011;47773;53.174;6.614;2024-02-26T04:54:40;10.95;;;4.25;;
61840;SDS011;47773;53.174;6.614;2024-02-26T04:57:05;8.52;;;4.30;;
61840;SDS011;47773;53.174;6.614;2024-02-26T04:59:31;9.48;;;4.38;;
61840;SDS011;47773;53.174;6.614;2024-02-26T05:01:56;7.60;;;3.75;;
61840;SDS011;47773;53.174;6.614;2024-02-26T05:04:22;6.05;;;3.80;;
61840;SDS011;47773;53.174;6.614;2024-02-26T05:06:47;7.30;;;3.40;;
61840;SDS011;47773;53.174;6.614;2024-02-26T05:09:13;9.70;;;4.18;;
61840;SDS011;47773;53.174;6.614;2024-02-26T05:11:39;6.22;;;3.72;;
61840;SDS011;47773;53.174;6.614;2024-02-26T05:14:04;9.35;;;3.90;;
61840;SDS011;47773;53.174;6.614;2024-02-26T05:16:30;6.22;;;3.70;;
61840;SDS011;47773;53.174;6.614;2024-02-26T05:18:56;8.65;;;4.22;;
61840;SDS011;47773;53.174;6.614;2024-02-26T05:21:22;6.97;;;3.30;;
61840;SDS011;47773;53.174;6.614;2024-02-26T05:23:47;5.75;;;3.45;;
61840;SDS011;47773;53.174;6.614;2024-02-26T05:26:22;8.77;;;3.53;;
61840;SDS011;47773;53.174;6.614;2024-02-26T05:28:48;7.15;;;3.67;;
61840;SDS011;47773;53.174;6.614;2024-02-26T05:31:14;5.75;;;3.55;;
61840;SDS011;47773;53.174;6.614;2024-02-26T05:33:41;5.82;;;3.45;;
61840;SDS011;47773;53.174;6.614;2024-02-26T05:36:06;9.05;;;3.75;;
61840;SDS011;47773;53.174;6.614;2024-02-26T05:38:32;8.13;;;3.50;;
61840;SDS011;47773;53.174;6.614;2024-02-26T05:41:00;7.35;;;3.72;;
61840;SDS011;47773;53.174;6.614;2024-02-26T05:43:26;7.82;;;3.83;;
61840;SDS011;47773;53.174;6.614;2024-02-26T05:45:52;8.90;;;3.63;;
61840;SDS011;47773;53.174;6.614;2024-02-26T05:48:18;6.03;;;3.70;;
61840;SDS011;47773;53.174;6.614;2024-02-26T05:50:44;6.78;;;3.83;;
61840;SDS011;47773;53.174;6.614;2024-02-26T05:53:11;9.63;;;3.72;;
61840;SDS011;47773;53.174;6.614;2024-02-26T05:55:36;5.75;;;3.45;;
61840;SDS011;47773;53.174;6.614;2024-02-26T05:58:02;7.00;;;3.17;;
61840;SDS011;47773;53.174;6.614;2024-02-26T06:00:28;4.63;;;3.10;;
61840;SDS011;47773;53.174;6.614;2024-02-26T06:02:53;5.63;;;3.25;;
61840;SDS011;47773;53.174;6.614;2024-02-26T06:05:19;7.05;;;3.50;;
61840;SDS011;47773;53.174;6.614;2024-02-26T06:07:45;6.25;;;3.50;;
61840;SDS011;47773;53.174;6.614;2024-02-26T06:10:10;5.93;;;3.72;;
61840;SDS011;47773;53.174;6.614;2024-02-26T06:12:38;6.20;;;3.60;;
61840;SDS011;47773;53.174;6.614;2024-02-26T06:15:04;6.43;;;3.33;;
61840;SDS011;47773;53.174;6.614;2024-02-26T06:17:30;5.68;;;3.55;;
61840;SDS011;47773;53.174;6.614;2024-02-26T06:19:55;7.55;;;3.55;;
61840;SDS011;47773;53.174;6.614;2024-02-26T06:22:21;7.45;;;3.72;;
61840;SDS011;47773;53.174;6.614;2024-02-26T06:24:47;7.60;;;3.30;;
61840;SDS011;47773;53.174;6.614;2024-02-26T06:27:12;7.85;;;3.80;;
61840;SDS011;47773;53.174;6.614;2024-02-26T06:29:38;5.75;;;3.75;;
61840;SDS011;47773;53.174;6.614;2024-02-26T06:32:04;8.68;;;3.47;;
61840;SDS011;47773;53.174;6.614;2024-02-26T06:34:30;5.80;;;3.47;;
61840;SDS011;47773;53.174;6.614;2024-02-26T06:36:56;9.20;;;3.78;;
61840;SDS011;47773;53.174;6.614;2024-02-26T06:39:21;6.05;;;3.65;;
61840;SDS011;47773;53.174;6.614;2024-02-26T06:41:47;8.15;;;3.92;;
61840;SDS011;47773;53.174;6.614;2024-02-26T06:44:13;6.45;;;3.70;;
61840;SDS011;47773;53.174;6.614;2024-02-26T06:46:39;7.22;;;3.85;;
61840;SDS011;47773;53.174;6.614;2024-02-26T06:49:05;6.78;;;4.10;;
61840;SDS011;47773;53.174;6.614;2024-02-26T06:51:30;5.85;;;3.45;;
61840;SDS011;47773;53.174;6.614;2024-02-26T06:53:56;8.93;;;4.03;;
61840;SDS011;47773;53.174;6.614;2024-02-26T06:56:21;6.53;;;3.58;;
61840;SDS011;47773;53.174;6.614;2024-02-26T06:58:47;7.03;;;3.80;;
61840;SDS011;47773;53.174;6.614;2024-02-26T07:01:13;5.82;;;3.45;;
61840;SDS011;47773;53.174;6.614;2024-02-26T07:03:41;7.22;;;3.80;;
61840;SDS011;47773;53.174;6.614;2024-02-26T07:06:08;5.32;;;3.55;;
61840;SDS011;47773;53.174;6.614;2024-02-26T07:08:33;7.90;;;3.25;;
61840;SDS011;47773;53.174;6.614;2024-02-26T07:10:59;6.25;;;3.47;;
61840;SDS011;47773;53.174;6.614;2024-02-26T07:13:25;5.63;;;3.35;;
61840;SDS011;47773;53.174;6.614;2024-02-26T07:15:50;7.00;;;3.55;;
61840;SDS011;47773;53.174;6.614;2024-02-26T07:18:16;5.05;;;3.15;;
61840;SDS011;47773;53.174;6.614;2024-02-26T07:20:41;4.78;;;3.22;;
61840;SDS011;47773;53.174;6.614;2024-02-26T07:23:07;6.65;;;3.05;;
61840;SDS011;47773;53.174;6.614;2024-02-26T07:25:33;10.30;;;3.58;;
61840;SDS011;47773;53.174;6.614;2024-02-26T07:27:59;5.70;;;3.10;;
61840;SDS011;47773;53.174;6.614;2024-02-26T07:30:24;12.30;;;3.47;;
61840;SDS011;47773;53.174;6.614;2024-02-26T07:32:50;11.10;;;3.45;;
61840;SDS011;47773;53.174;6.614;2024-02-26T07:35:16;9.75;;;3.15;;
61840;SDS011;47773;53.174;6.614;2024-02-26T07:37:42;7.30;;;3.40;;
61840;SDS011;47773;53.174;6.614;2024-02-26T07:40:08;5.43;;;3.00;;
61840;SDS011;47773;53.174;6.614;2024-02-26T07:42:34;6.93;;;3.03;;
61840;SDS011;47773;53.174;6.614;2024-02-26T07:45:00;7.85;;;3.28;;
61840;SDS011;47773;53.174;6.614;2024-02-26T07:47:27;7.22;;;3.13;;
61840;SDS011;47773;53.174;6.614;2024-02-26T07:49:53;5.70;;;3.15;;
61840;SDS011;47773;53.174;6.614;2024-02-26T07:52:18;4.70;;;3.25;;
61840;SDS011;47773;53.174;6.614;2024-02-26T07:54:44;7.85;;;2.83;;
61840;SDS011;47773;53.174;6.614;2024-02-26T07:57:09;8.43;;;3.63;;
61840;SDS011;47773;53.174;6.614;2024-02-26T07:59:35;6.90;;;2.97;;
61840;SDS011;47773;53.174;6.614;2024-02-26T08:02:00;7.15;;;3.42;;
61840;SDS011;47773;53.174;6.614;2024-02-26T08:04:28;8.15;;;3.10;;
61840;SDS011;47773;53.174;6.614;2024-02-26T08:06:54;6.72;;;3.10;;
61840;SDS011;47773;53.174;6.614;2024-02-26T08:09:19;7.50;;;3.33;;
61840;SDS011;47773;53.174;6.614;2024-02-26T08:11:45;5.63;;;3.20;;
61840;SDS011;47773;53.174;6.614;2024-02-26T08:14:11;6.90;;;3.38;;
61840;SDS011;47773;53.174;6.614;2024-02-26T08:16:36;6.32;;;3.10;;
61840;SDS011;47773;53.174;6.614;2024-02-26T08:19:02;5.32;;;2.80;;
61840;SDS011;47773;53.174;6.614;2024-02-26T08:21:28;8.27;;;3.25;;
61840;SDS011;47773;53.174;6.614;2024-02-26T08:23:54;6.63;;;3.20;;
61840;SDS011;47773;53.174;6.614;2024-02-26T08:26:20;7.68;;;3.30;;
61840;SDS011;47773;53.174;6.614;2024-02-26T08:28:47;7.55;;;4.00;;
61840;SDS011;47773;53.174;6.614;2024-02-26T08:31:14;6.10;;;3.47;;
61840;SDS011;47773;53.174;6.614;2024-02-26T08:33:39;8.00;;;3.80;;
61840;SDS011;47773;53.174;6.614;2024-02-26T08:36:05;5.90;;;3.22;;
61840;SDS011;47773;53.174;6.614;2024-02-26T08:38:31;7.85;;;3.53;;
61840;SDS011;47773;53.174;6.614;2024-02-26T08:40:59;5.22;;;3.35;;
61840;SDS011;47773;53.174;6.614;2024-02-26T08:43:26;8.30;;;3.35;;
61840;SDS011;47773;53.174;6.614;2024-02-26T08:45:51;4.30;;;2.88;;
61840;SDS011;47773;53.174;6.614;2024-02-26T08:48:17;6.30;;;3.20;;
61840;SDS011;47773;53.174;6.614;2024-02-26T08:50:43;5.15;;;2.85;;
61840;SDS011;47773;53.174;6.614;2024-02-26T08:53:09;8.20;;;3.35;;
61840;SDS011;47773;53.174;6.614;2024-02-26T08:55:34;8.82;;;3.20;;
61840;SDS011;47773;53.174;6.614;2024-02-26T08:58:00;5.03;;;3.38;;
61840;SDS011;47773;53.174;6.614;2024-02-26T09:00:26;5.63;;;3.10;;
61840;SDS011;47773;53.174;6.614;2024-02-26T09:02:51;6.47;;;3.05;;
61840;SDS011;47773;53.174;6.614;2024-02-26T09:05:17;5.43;;;2.70;;
61840;SDS011;47773;53.174;6.614;2024-02-26T09:07:43;4.72;;;3.20;;
61840;SDS011;47773;53.174;6.614;2024-02-26T09:10:09;5.18;;;2.97;;
61840;SDS011;47773;53.174;6.614;2024-02-26T09:12:35;5.18;;;3.25;;
61840;SDS011;47773;53.174;6.614;2024-02-26T09:15:05;5.18;;;2.65;;
61840;SDS011;47773;53.174;6.614;2024-02-26T09:17:32;3.13;;;2.28;;
61840;SDS011;47773;53.174;6.614;2024-02-26T09:19:57;4.93;;;2.72;;
61840;SDS011;47773;53.174;6.614;2024-02-26T09:22:23;7.35;;;2.92;;
61840;SDS011;47773;53.174;6.614;2024-02-26T09:24:49;5.72;;;2.90;;
61840;SDS011;47773;53.174;6.614;2024-02-26T09:27:16;5.78;;;2.90;;
61840;SDS011;47773;53.174;6.614;2024-02-26T09:29:42;6.72;;;2.90;;
61840;SDS011;47773;53.174;6.614;2024-02-26T09:32:08;4.40;;;3.00;;
61840;SDS011;47773;53.174;6.614;2024-02-26T09:34:33;5.60;;;3.00;;
61840;SDS011;47773;53.174;6.614;2024-02-26T09:36:59;7.22;;;2.90;;
61840;SDS011;47773;53.174;6.614;2024-02-26T09:39:25;7.75;;;2.90;;
61840;SDS011;47773;53.174;6.614;2024-02-26T09:41:52;5.40;;;3.03;;
61840;SDS011;47773;53.174;6.614;2024-02-26T09:44:19;5.28;;;2.97;;
61840;SDS011;47773;53.174;6.614;2024-02-26T09:46:48;9.13;;;3.42;;
61840;SDS011;47773;53.174;6.614;2024-02-26T09:49:17;7.00;;;2.85;;
61840;SDS011;47773;53.174;6.614;2024-02-26T09:51:45;5.40;;;3.10;;
61840;SDS011;47773;53.174;6.614;2024-02-26T09:54:12;4.97;;;2.80;;
61840;SDS011;47773;53.174;6.614;2024-02-26T09:56:38;6.63;;;2.45;;
61840;SDS011;47773;53.174;6.614;2024-02-26T09:59:15;5.47;;;3.03;;
61840;SDS011;47773;53.174;6.614;2024-02-26T10:01:42;7.90;;;3.45;;
61840;SDS011;47773;53.174;6.614;2024-02-26T10:04:09;4.75;;;2.88;;
61840;SDS011;47773;53.174;6.614;2024-02-26T10:06:36;4.72;;;2.83;;
61840;SDS011;47773;53.174;6.614;2024-02-26T10:09:02;8.15;;;2.83;;
61840;SDS011;47773;53.174;6.614;2024-02-26T10:11:31;6.47;;;3.10;;
61840;SDS011;47773;53.174;6.614;2024-02-26T10:13:57;5.63;;;2.85;;
61840;SDS011;47773;53.174;6.614;2024-02-26T10:16:23;4.95;;;3.40;;
61840;SDS011;47773;53.174;6.614;2024-02-26T10:18:51;7.72;;;3.83;;
61840;SDS011;47773;53.174;6.614;2024-02-26T10:21:18;8.40;;;4.32;;
61840;SDS011;47773;53.174;6.614;2024-02-26T10:23:47;6.10;;;2.92;;
61840;SDS011;47773;53.174;6.614;2024-02-26T10:26:13;6.72;;;3.03;;
61840;SDS011;47773;53.174;6.614;2024-02-26T10:28:44;5.93;;;2.92;;
61840;SDS011;47773;53.174;6.614;2024-02-26T10:31:10;5.93;;;2.47;;
61840;SDS011;47773;53.174;6.614;2024-02-26T10:33:37;5.53;;;2.35;;
61840;SDS011;47773;53.174;6.614;2024-02-26T10:36:04;7.40;;;2.83;;
61840;SDS011;47773;53.174;6.614;2024-02-26T10:38:30;4.78;;;2.90;;
61840;SDS011;47773;53.174;6.614;2024-02-26T10:40:57;4.10;;;2.60;;
61840;SDS011;47773;53.174;6.614;2024-02-26T10:43:24;4.70;;;2.90;;
61840;SDS011;47773;53.174;6.614;2024-02-26T10:45:50;4.60;;;2.95;;
61840;SDS011;47773;53.174;6.614;2024-02-26T10:48:16;6.25;;;2.42;;
61840;SDS011;47773;53.174;6.614;2024-02-26T10:50:43;4.18;;;2.60;;
61840;SDS011;47773;53.174;6.614;2024-02-26T10:53:16;6.90;;;2.60;;
61840;SDS011;47773;53.174;6.614;2024-02-26T10:55:46;5.10;;;2.45;;
61840;SDS011;47773;53.174;6.614;2024-02-26T10:58:17;5.75;;;2.63;;
61840;SDS011;47773;53.174;6.614;2024-02-26T11:00:44;3.65;;;2.40;;
61840;SDS011;47773;53.174;6.614;2024-02-26T11:03:12;5.03;;;2.65;;
61840;SDS011;47773;53.174;6.614;2024-02-26T11:05:41;4.20;;;2.17;;
61840;SDS011;47773;53.174;6.614;2024-02-26T11:08:09;6.18;;;2.10;;
61840;SDS011;47773;53.174;6.614;2024-02-26T11:10:36;5.35;;;1.85;;
61840;SDS011;47773;53.174;6.614;2024-02-26T11:13:03;6.28;;;1.88;;
61840;SDS011;47773;53.174;6.614;2024-02-26T11:15:31;4.97;;;2.10;;
61840;SDS011;47773;53.174;6.614;2024-02-26T11:17:58;5.20;;;1.98;;
61840;SDS011;47773;53.174;6.614;2024-02-26T11:20:27;7.88;;;2.40;;
61840;SDS011;47773;53.174;6.614;2024-02-26T11:22:53;4.60;;;2.20;;
61840;SDS011;47773;53.174;6.614;2024-02-26T11:25:19;3.35;;;2.00;;
61840;SDS011;47773;53.174;6.614;2024-02-26T11:27:49;5.95;;;2.65;;
61840;SDS011;47773;53.174;6.614;2024-02-26T11:30:23;3.92;;;2.60;;
61840;SDS011;47773;53.174;6.614;2024-02-26T11:32:51;3.58;;;2.30;;
61840;SDS011;47773;53.174;6.614;2024-02-26T11:35:18;5.97;;;2.25;;
61840;SDS011;47773;53.174;6.614;2024-02-26T11:37:54;4.68;;;2.60;;
61840;SDS011;47773;53.174;6.614;2024-02-26T11:40:22;5.80;;;2.40;;
61840;SDS011;47773;53.174;6.614;2024-02-26T11:42:49;7.25;;;2.67;;
61840;SDS011;47773;53.174;6.614;2024-02-26T11:48:05;6.05;;;2.63;;
61840;SDS011;47773;53.174;6.614;2024-02-26T11:50:39;5.67;;;2.47;;
61840;SDS011;47773;53.174;6.614;2024-02-26T11:53:19;6.53;;;3.05;;
61840;SDS011;47773;53.174;6.614;2024-02-26T11:55:46;5.70;;;2.88;;
61840;SDS011;47773;53.174;6.614;2024-02-26T11:58:11;6.55;;;3.53;;
61840;SDS011;47773;53.174;6.614;2024-02-26T12:00:37;10.25;;;4.43;;
61840;SDS011;47773;53.174;6.614;2024-02-26T12:03:05;9.55;;;4.85;;
61840;SDS011;47773;53.174;6.614;2024-02-26T12:05:33;10.07;;;4.70;;
61840;SDS011;47773;53.174;6.614;2024-02-26T12:10:32;10.55;;;4.20;;
61840;SDS011;47773;53.174;6.614;2024-02-26T12:13:15;11.38;;;4.75;;
61840;SDS011;47773;53.174;6.614;2024-02-26T12:15:45;6.85;;;4.63;;
61840;SDS011;47773;53.174;6.614;2024-02-26T12:18:19;7.60;;;4.25;;
61840;SDS011;47773;53.174;6.614;2024-02-26T12:20:47;9.57;;;4.72;;
61840;SDS011;47773;53.174;6.614;2024-02-26T12:23:27;7.57;;;4.40;;
61840;SDS011;47773;53.174;6.614;2024-02-26T12:25:53;10.85;;;4.97;;
61840;SDS011;47773;53.174;6.614;2024-02-26T12:28:23;8.30;;;4.90;;
61840;SDS011;47773;53.174;6.614;2024-02-26T12:30:52;15.52;;;5.57;;
61840;SDS011;47773;53.174;6.614;2024-02-26T12:33:18;10.88;;;5.78;;
61840;SDS011;47773;53.174;6.614;2024-02-26T12:35:43;14.05;;;5.95;;
61840;SDS011;47773;53.174;6.614;2024-02-26T12:38:12;14.50;;;6.25;;
61840;SDS011;47773;53.174;6.614;2024-02-26T12:40:40;10.18;;;5.78;;
61840;SDS011;47773;53.174;6.614;2024-02-26T12:43:06;10.95;;;6.35;;
61840;SDS011;47773;53.174;6.614;2024-02-26T12:45:38;12.15;;;5.75;;
61840;SDS011;47773;53.174;6.614;2024-02-26T12:48:05;12.27;;;6.47;;
61840;SDS011;47773;53.174;6.614;2024-02-26T12:50:31;11.68;;;6.63;;
61840;SDS011;47773;53.174;6.614;2024-02-26T12:52:57;12.98;;;6.30;;
61840;SDS011;47773;53.174;6.614;2024-02-26T12:55:24;14.90;;;7.00;;
61840;SDS011;47773;53.174;6.614;2024-02-26T12:57:51;17.17;;;6.82;;
61840;SDS011;47773;53.174;6.614;2024-02-26T13:00:21;14.45;;;7.47;;
61840;SDS011;47773;53.174;6.614;2024-02-26T13:02:50;13.23;;;6.85;;
61840;SDS011;47773;53.174;6.614;2024-02-26T13:05:16;12.15;;;6.15;;
61840;SDS011;47773;53.174;6.614;2024-02-26T13:07:44;11.30;;;6.60;;
61840;SDS011;47773;53.174;6.614;2024-02-26T13:10:12;10.75;;;5.88;;
61840;SDS011;47773;53.174;6.614;2024-02-26T13:12:44;13.80;;;6.80;;
61840;SDS011;47773;53.174;6.614;2024-02-26T13:17:41;12.10;;;6.75;;
61840;SDS011;47773;53.174;6.614;2024-02-26T13:20:08;11.23;;;6.60;;
61840;SDS011;47773;53.174;6.614;2024-02-26T13:22:34;20.23;;;7.65;;
61840;SDS011;47773;53.174;6.614;2024-02-26T13:25:00;14.15;;;7.50;;
61840;SDS011;47773;53.174;6.614;2024-02-26T13:27:28;13.23;;;7.28;;
61840;SDS011;47773;53.174;6.614;2024-02-26T13:32:32;14.07;;;7.63;;
61840;SDS011;47773;53.174;6.614;2024-02-26T13:35:08;11.48;;;6.90;;
61840;SDS011;47773;53.174;6.614;2024-02-26T13:37:35;14.60;;;6.85;;
61840;SDS011;47773;53.174;6.614;2024-02-26T13:40:11;16.63;;;7.15;;
61840;SDS011;47773;53.174;6.614;2024-02-26T13:42:37;13.15;;;6.80;;
61840;SDS011;47773;53.174;6.614;2024-02-26T13:45:04;14.40;;;7.70;;
61840;SDS011;47773;53.174;6.614;2024-02-26T13:47:33;14.82;;;7.30;;
61840;SDS011;47773;53.174;6.614;2024-02-26T13:49:59;15.23;;;7.25;;
61840;SDS011;47773;53.174;6.614;2024-02-26T13:52:26;15.40;;;7.78;;
61840;SDS011;47773;53.174;6.614;2024-02-26T13:54:52;13.32;;;7.50;;
61840;SDS011;47773;53.174;6.614;2024-02-26T13:57:19;13.27;;;7.47;;
61840;SDS011;47773;53.174;6.614;2024-02-26T13:59:44;13.52;;;7.95;;
61840;SDS011;47773;53.174;6.614;2024-02-26T14:02:10;15.43;;;7.90;;
61840;SDS011;47773;53.174;6.614;2024-02-26T14:04:36;15.30;;;8.25;;
61840;SDS011;47773;53.174;6.614;2024-02-26T14:07:02;17.08;;;8.20;;
61840;SDS011;47773;53.174;6.614;2024-02-26T14:09:28;14.73;;;8.93;;
61840;SDS011;47773;53.174;6.614;2024-02-26T14:11:54;14.70;;;7.90;;
61840;SDS011;47773;53.174;6.614;2024-02-26T14:14:20;12.63;;;7.28;;
61840;SDS011;47773;53.174;6.614;2024-02-26T14:16:45;14.40;;;7.38;;
61840;SDS011;47773;53.174;6.614;2024-02-26T14:19:11;14.52;;;7.68;;
61840;SDS011;47773;53.174;6.614;2024-02-26T14:21:37;13.02;;;7.60;;
61840;SDS011;47773;53.174;6.614;2024-02-26T14:24:03;17.42;;;7.93;;
61840;SDS011;47773;53.174;6.614;2024-02-26T14:26:29;16.42;;;8.82;;
61840;SDS011;47773;53.174;6.614;2024-02-26T14:28:55;13.25;;;6.45;;
61840;SDS011;47773;53.174;6.614;2024-02-26T14:31:21;13.05;;;7.15;;
61840;SDS011;47773;53.174;6.614;2024-02-26T14:33:47;13.75;;;6.60;;
61840;SDS011;47773;53.174;6.614;2024-02-26T14:36:13;15.13;;;7.82;;
61840;SDS011;47773;53.174;6.614;2024-02-26T14:38:39;13.52;;;6.88;;
61840;SDS011;47773;53.174;6.614;2024-02-26T14:41:05;14.60;;;7.10;;
61840;SDS011;47773;53.174;6.614;2024-02-26T14:43:31;14.63;;;7.28;;
61840;SDS011;47773;53.174;6.614;2024-02-26T14:46:00;13.48;;;7.28;;
61840;SDS011;47773;53.174;6.614;2024-02-26T14:48:25;12.98;;;7.43;;